map of BJI home
BJI - Airport
Location
City:  Bemidji, Minnesota, United States
Name:Bemidji Regional
ICAO:KBJI
IATA:BJI
FAA LID:BJI

Details
Type:Airport (Part 139 Class I)
Use:Public/Civil
Latitude:4730'39"N (47.510722)
Longitude:9456'05"W (-94.934721)
Datum:WGS 1984
Elevation:1391 ft (424 m)
Variation:1.25E (WMM2015 magnetic declination)
-0.07 annual change
Runways:2
Longest:7004 × 150 ft (2135 × 45.5 m), paved

Time
Time Zone:UTC-6 (DST-5)
Local Time:

Weather
METAR:KBJI 180616Z AUTO 32006KT 10SM CLR M24/M27 A3018 RMK AO2 T12431266
TAF:KBJI 180527Z 1806/1906 VRB04KT P6SM SKC
FM181300 36006KT P6SM BKN200

Related Locations
Nearby:
Farthest:YWKS: 10800 mi / 17381 km
Wilkins Runway (Casey), Upper Peterson Glacier, AQ

Find:

   beyond  
but within

Other Information
Maps:
NOTAMs:
Links:
Sources:

  
  • flag of United States
  • flag of Minnesota
  

Airport Diagram

Airport diagram for BJI

Airport diagram PDF from FAA

Sectional Chart

Flight Planning
at skyvector.com

Satellite Image

Google Maps Satellite view

 

Copyright © 2004-2019 Karl L. Swartz. All rights reserved.
The Great Circle Mapper name and logo are trademarks of the Great Circle Mapper.
All other trademarks mentioned herein belong to their respective owners.
Please see credits for attibutions and further copyright information.

  Follow gcmap on Facebook Follow gcmap on Twitter Follow gcmap on Google+ GCmap on LinkedIn

hCard Microformat

Geo Microformat